Time;durP1;ratioP1;P1;durP2;ratioP2;P2;SDS_P1;SDS_P2;PMS_P1;PMS_P2;Temp;Humidity;BMP_temperature;BMP_pressure;BME280_temperature;BME280_humidity;BME280_pressure;Samples;Min_cycle;Max_cycle;Signal;HPM_P1;HPM_P2
2021/06/06 00:00:19;;;;;;;6.38;2.42;;;;;;;11.58;83.00;102068.84;6035737;23;20421;-84
2021/06/06 00:02:44;;;;;;;4.55;2.67;;;;;;;11.60;83.02;102077.63;6039562;23;20025;-84
2021/06/06 00:05:11;;;;;;;10.75;3.47;;;;;;;11.51;82.48;102056.97;6017415;23;19999;-85
2021/06/06 00:07:37;;;;;;;9.98;3.53;;;;;;;11.54;82.65;102071.00;6015702;23;19999;-82
2021/06/06 00:10:04;;;;;;;5.75;2.63;;;;;;;11.51;82.63;102070.44;6040154;23;20011;-84
2021/06/06 00:12:30;;;;;;;5.57;2.47;;;;;;;11.45;83.04;102077.28;6012207;23;20436;-83
2021/06/06 00:14:56;;;;;;;5.47;2.40;;;;;;;11.14;82.93;102030.94;6036607;23;20006;-84
2021/06/06 00:17:22;;;;;;;9.02;2.60;;;;;;;11.34;83.74;102075.63;6015506;23;20037;-84
2021/06/06 00:19:47;;;;;;;6.55;2.50;;;;;;;11.25;83.78;102067.59;6014666;23;20085;-82
2021/06/06 00:22:12;;;;;;;4.88;2.53;;;;;;;11.25;83.68;102079.22;6015807;23;20003;-85
2021/06/06 00:24:38;;;;;;;8.38;2.08;;;;;;;11.28;84.25;102076.22;6016099;23;20065;-83
2021/06/06 00:27:05;;;;;;;4.70;2.30;;;;;;;11.25;84.21;102079.22;6013895;23;20019;-85
2021/06/06 00:29:32;;;;;;;5.78;2.10;;;;;;;11.30;83.54;102085.00;6037080;23;20015;-83
2021/06/06 00:31:57;;;;;;;7.13;2.25;;;;;;;11.24;83.62;102082.88;6013927;23;20095;-82
2021/06/06 00:34:23;;;;;;;6.10;1.98;;;;;;;11.02;83.69;102037.50;6039982;23;20448;-84
2021/06/06 00:36:49;;;;;;;5.72;2.30;;;;;;;11.26;83.50;102069.28;6041396;23;20433;-85
2021/06/06 00:39:14;;;;;;;9.63;2.50;;;;;;;11.25;83.50;102070.31;6015168;23;20378;-83
2021/06/06 00:41:41;;;;;;;6.28;1.90;;;;;;;11.17;83.69;102063.81;6037121;23;20341;-84
2021/06/06 00:44:08;;;;;;;5.55;1.70;;;;;;;11.21;83.86;102075.94;6012146;23;20006;-83
2021/06/06 00:46:34;;;;;;;6.20;1.90;;;;;;;11.20;83.86;102068.03;6012995;23;20729;-84
2021/06/06 00:49:00;;;;;;;6.28;1.95;;;;;;;11.19;83.51;102072.59;6039463;23;20455;-82
2021/06/06 00:51:36;;;;;;;7.88;1.88;;;;;;;11.17;83.46;102073.72;6016964;23;20010;-85
2021/06/06 00:54:07;;;;;;;4.05;1.60;;;;;;;11.22;83.55;102082.22;6016897;23;20005;-85
2021/06/06 00:56:32;;;;;;;5.18;1.55;;;;;;;11.13;83.73;102075.00;6037133;23;20010;-84
2021/06/06 00:58:59;;;;;;;3.80;1.52;;;;;;;11.03;83.64;102064.25;6036078;23;20451;-83
2021/06/06 01:01:26;;;;;;;4.80;1.50;;;;;;;11.10;83.57;102075.31;6014908;23;20097;-85
2021/06/06 01:03:54;;;;;;;5.10;1.55;;;;;;;11.12;83.17;102082.25;6015584;23;20058;-84
2021/06/06 01:06:46;;;;;;;3.28;1.55;;;;;;;11.06;83.25;102076.56;6016678;23;20077;-84
2021/06/06 01:09:12;;;;;;;3.13;1.63;;;;;;;11.08;83.23;102088.91;6014252;23;20014;-83
2021/06/06 01:11:43;;;;;;;5.05;1.98;;;;;;;11.02;83.06;102080.56;6012557;23;20764;-85
2021/06/06 01:14:20;;;;;;;5.45;2.35;;;;;;;11.02;83.06;102086.81;6012837;23;20010;-84
2021/06/06 01:16:58;;;;;;;5.28;1.60;;;;;;;10.99;83.46;102082.56;6014113;23;20321;-86
2021/06/06 01:19:32;;;;;;;5.30;1.42;;;;;;;10.98;83.43;102091.63;6016067;23;20029;-86
2021/06/06 01:22:31;;;;;;;6.13;1.58;;;;;;;10.89;83.42;102076.34;6038584;23;20010;-84
2021/06/06 01:25:07;;;;;;;3.83;1.83;;;;;;;10.92;83.36;102085.97;6037118;23;20003;-84
2021/06/06 01:27:35;;;;;;;5.50;1.50;;;;;;;10.87;83.50;102080.19;6012421;23;20060;-83
2021/06/06 01:30:11;;;;;;;4.80;2.08;;;;;;;10.94;83.61;102098.28;6012870;23;20441;-84
2021/06/06 01:32:39;;;;;;;5.50;1.60;;;;;;;10.91;83.84;102090.50;6015936;23;20007;-86
2021/06/06 01:35:11;;;;;;;6.97;1.70;;;;;;;10.87;83.88;102083.72;6065995;23;20003;-85
2021/06/06 01:37:42;;;;;;;4.82;1.98;;;;;;;10.82;84.30;102080.59;6017392;23;20050;-86
2021/06/06 01:40:11;;;;;;;5.90;1.98;;;;;;;10.77;84.02;102082.91;6040785;23;20010;-84
2021/06/06 01:42:39;;;;;;;6.93;2.17;;;;;;;10.75;83.85;102091.13;6038601;23;20089;-83
2021/06/06 01:45:09;;;;;;;8.40;2.05;;;;;;;10.75;84.13;102109.94;6038003;23;20017;-84
2021/06/06 01:47:36;;;;;;;6.60;1.95;;;;;;;10.67;84.06;102100.91;6015667;23;20010;-85
2021/06/06 01:50:19;;;;;;;5.68;1.80;;;;;;;10.63;84.46;102112.94;6016763;23;20007;-82
2021/06/06 01:52:45;;;;;;;4.55;1.70;;;;;;;10.58;84.92;102113.34;6017663;23;20058;-86
2021/06/06 01:55:13;;;;;;;3.28;1.50;;;;;;;10.52;84.87;102112.09;6040566;23;20517;-83
2021/06/06 01:57:39;;;;;;;2.97;1.80;;;;;;;10.46;84.92;102098.38;6013110;23;20093;-83
2021/06/06 02:00:15;;;;;;;6.63;1.60;;;;;;;10.43;85.17;102109.41;6013717;23;20010;-84
2021/06/06 02:02:41;;;;;;;4.75;1.70;;;;;;;10.37;85.33;102094.66;6015198;23;20065;-85
2021/06/06 02:05:14;;;;;;;3.83;1.60;;;;;;;10.42;85.16;102103.16;6016678;23;20014;-85
2021/06/06 02:07:40;;;;;;;5.13;1.80;;;;;;;10.42;85.11;102095.09;6042909;23;20003;-84
2021/06/06 02:10:26;;;;;;;7.53;2.10;;;;;;;10.44;85.27;102103.88;6039778;23;20006;-84
2021/06/06 02:12:54;;;;;;;3.50;1.67;;;;;;;10.47;85.17;102106.28;6016412;23;20006;-84
2021/06/06 02:15:30;;;;;;;5.45;1.73;;;;;;;10.44;84.94;102101.19;6015185;23;20349;-85
2021/06/06 02:17:57;;;;;;;4.22;1.60;;;;;;;10.45;84.98;102105.59;6016016;23;20006;-85
2021/06/06 02:20:26;;;;;;;5.75;1.88;;;;;;;10.37;84.73;102100.06;6042240;23;20038;-86
2021/06/06 02:22:53;;;;;;;5.85;1.75;;;;;;;10.20;84.98;102084.59;6018538;23;20006;-82
2021/06/06 02:25:19;;;;;;;5.05;1.70;;;;;;;10.21;85.05;102097.88;6014653;23;20030;-83
2021/06/06 02:28:02;;;;;;;5.97;1.60;;;;;;;10.27;85.30;102109.94;6013363;23;20006;-86
2021/06/06 02:30:38;;;;;;;4.15;1.70;;;;;;;10.19;85.73;102110.66;6038855;23;20093;-84
2021/06/06 02:33:31;;;;;;;7.95;1.58;;;;;;;10.20;85.57;102119.56;6016847;23;20018;-83
2021/06/06 02:36:03;;;;;;;4.45;1.40;;;;;;;10.15;85.82;102121.81;6041422;23;20062;-86
2021/06/06 02:38:36;;;;;;;7.05;2.22;;;;;;;10.15;85.90;102116.44;6016377;23;20009;-84
2021/06/06 02:41:11;;;;;;;4.50;1.52;;;;;;;10.08;85.92;102100.00;6013581;23;20039;-84
2021/06/06 02:43:49;;;;;;;5.28;2.10;;;;;;;10.15;85.99;102119.13;6039361;23;20011;-86
2021/06/06 02:46:17;;;;;;;5.18;1.55;;;;;;;10.05;85.58;102098.44;6013506;23;20006;-85
2021/06/06 02:48:46;;;;;;;5.53;1.58;;;;;;;10.17;85.20;102115.31;6015165;23;20021;-84
2021/06/06 02:51:15;;;;;;;7.70;2.05;;;;;;;10.21;84.67;102119.41;6016087;23;20026;-83
2021/06/06 02:54:00;;;;;;;9.43;1.90;;;;;;;10.18;84.19;102113.47;6016257;23;20007;-84
2021/06/06 02:56:42;;;;;;;7.43;2.03;;;;;;;10.17;84.25;102119.84;6013412;23;20015;-84
2021/06/06 02:59:21;;;;;;;7.43;1.63;;;;;;;10.13;84.52;102127.31;6013744;23;20033;-82
2021/06/06 03:01:50;;;;;;;9.07;2.40;;;;;;;10.10;84.81;102128.44;6014039;23;20634;-83
2021/06/06 03:04:19;;;;;;;6.88;1.90;;;;;;;10.06;85.06;102118.97;6041628;23;20003;-85
2021/06/06 03:06:51;;;;;;;5.35;1.73;;;;;;;10.13;84.52;102127.31;6040022;23;20058;-84
2021/06/06 03:09:17;;;;;;;4.55;1.90;;;;;;;10.14;84.27;102123.66;6040762;23;20078;-83
2021/06/06 03:11:45;;;;;;;8.98;1.73;;;;;;;10.12;83.95;102121.09;6013493;23;20015;-85
2021/06/06 03:14:15;;;;;;;8.15;1.77;;;;;;;9.90;84.03;102108.75;6014521;23;20074;-83
2021/06/06 03:16:49;;;;;;;5.85;1.88;;;;;;;10.00;84.49;102126.72;6038381;23;20026;-83
2021/06/06 03:19:15;;;;;;;7.53;1.67;;;;;;;9.84;84.39;102103.06;6017059;23;20007;-85
2021/06/06 03:21:44;;;;;;;6.43;1.52;;;;;;;9.89;84.33;102120.47;6019282;23;20038;-83
2021/06/06 03:24:20;;;;;;;6.88;1.73;;;;;;;9.80;84.19;102107.03;6039974;23;20078;-85
2021/06/06 03:26:48;;;;;;;3.97;1.48;;;;;;;9.81;84.89;102116.78;6039567;23;20013;-85
2021/06/06 03:29:17;;;;;;;6.45;1.50;;;;;;;9.77;84.88;102126.13;6036776;23;20512;-84
2021/06/06 03:31:46;;;;;;;8.15;1.80;;;;;;;9.78;84.97;102133.19;6014396;23;20082;-87
2021/06/06 03:34:11;;;;;;;7.38;1.75;;;;;;;9.75;84.82;102134.31;6013532;23;20006;-83
2021/06/06 03:36:40;;;;;;;6.25;1.80;;;;;;;9.70;84.91;102131.19;6039277;23;20501;-85
2021/06/06 03:39:10;;;;;;;9.85;2.05;;;;;;;9.74;85.20;102138.00;6036313;23;20101;-86
2021/06/06 03:41:36;;;;;;;7.97;1.75;;;;;;;9.70;84.33;102139.25;6017738;23;20010;-85
2021/06/06 03:44:04;;;;;;;7.93;1.55;;;;;;;9.69;84.62;102143.75;6041777;23;20010;-86
2021/06/06 03:46:29;;;;;;;5.35;1.50;;;;;;;9.50;84.51;102111.47;6017492;23;20519;-86
2021/06/06 03:48:55;;;;;;;4.63;1.95;;;;;;;9.62;84.44;102126.47;6017898;23;20018;-85
2021/06/06 03:51:22;;;;;;;6.55;2.17;;;;;;;9.55;84.48;102124.47;6017486;23;20037;-85
2021/06/06 03:53:48;;;;;;;6.97;1.63;;;;;;;9.48;84.11;102117.97;6017311;23;20031;-84
2021/06/06 03:56:14;;;;;;;5.93;1.52;;;;;;;9.49;84.10;102141.13;6017986;23;20011;-85
2021/06/06 03:58:40;;;;;;;6.03;1.67;;;;;;;9.44;84.00;102130.78;6015671;23;20052;-85
2021/06/06 04:01:06;;;;;;;4.47;1.50;;;;;;;9.33;83.79;102122.84;6042614;23;20015;-85
2021/06/06 04:03:31;;;;;;;6.05;1.58;;;;;;;9.24;83.97;102128.03;6042685;23;20038;-84
2021/06/06 04:05:57;;;;;;;3.72;1.42;;;;;;;9.17;83.74;102123.31;6018364;23;20026;-85
2021/06/06 04:08:23;;;;;;;5.60;1.55;;;;;;;9.15;83.91;102136.03;6016439;23;20496;-84
2021/06/06 04:10:49;;;;;;;4.57;1.48;;;;;;;9.10;83.94;102133.72;6043121;23;20003;-85
2021/06/06 04:13:15;;;;;;;4.28;1.55;;;;;;;9.03;83.70;102129.91;6043224;23;20071;-85
2021/06/06 04:15:41;;;;;;;5.72;1.60;;;;;;;8.95;83.95;102124.34;6039385;23;20002;-85
2021/06/06 04:18:15;;;;;;;5.38;1.40;;;;;;;8.92;83.88;102133.50;6021945;23;20018;-85
2021/06/06 04:20:41;;;;;;;8.70;1.50;;;;;;;8.89;83.84;102125.72;6044142;23;20333;-84
2021/06/06 04:23:07;;;;;;;5.68;2.03;;;;;;;8.91;83.49;102138.97;6014627;23;20010;-85
2021/06/06 04:25:32;;;;;;;4.22;1.58;;;;;;;8.80;83.35;102132.69;6017665;23;20007;-86
2021/06/06 04:27:58;;;;;;;2.55;1.55;;;;;;;8.76;83.62;102136.63;6016803;23;20365;-84
2021/06/06 04:30:24;;;;;;;3.13;1.20;;;;;;;8.72;83.00;102129.81;6016450;23;20010;-86
2021/06/06 04:32:49;;;;;;;4.18;1.40;;;;;;;8.63;83.11;102122.56;6018714;23;20336;-85
2021/06/06 04:35:15;;;;;;;4.22;1.35;;;;;;;8.69;83.36;102134.59;6016136;23;20006;-85
2021/06/06 04:37:41;;;;;;;1.67;0.90;;;;;;;8.64;83.34;102142.19;6016616;23;20322;-85
2021/06/06 04:40:08;;;;;;;2.70;1.00;;;;;;;8.47;83.66;102127.53;6041097;23;20013;-84
2021/06/06 04:42:34;;;;;;;3.10;1.10;;;;;;;8.38;84.00;102132.63;6040817;23;20002;-86
2021/06/06 04:44:59;;;;;;;4.78;1.05;;;;;;;8.27;84.54;102108.53;6019107;23;20009;-84
2021/06/06 04:47:25;;;;;;;2.03;0.90;;;;;;;8.33;84.07;102134.81;6017197;23;20070;-84
2021/06/06 04:49:50;;;;;;;3.15;0.98;;;;;;;8.30;84.54;102124.38;6017371;23;20611;-85
2021/06/06 04:52:16;;;;;;;2.03;1.10;;;;;;;8.28;84.10;102136.19;6017872;23;20010;-85
2021/06/06 04:54:41;;;;;;;3.47;1.20;;;;;;;8.20;84.16;102122.56;6020714;23;20003;-85
2021/06/06 04:57:08;;;;;;;2.45;1.00;;;;;;;8.18;84.23;102135.25;6040516;23;20002;-84
2021/06/06 04:59:37;;;;;;;1.88;1.17;;;;;;;8.16;84.12;102130.03;6016375;23;20039;-85
2021/06/06 05:02:05;;;;;;;1.67;1.00;;;;;;;8.19;84.45;102135.13;6016788;23;20014;-85
2021/06/06 05:04:34;;;;;;;2.17;0.90;;;;;;;8.27;84.23;102138.03;6017404;23;20014;-85
2021/06/06 05:07:00;;;;;;;3.42;1.00;;;;;;;8.28;84.59;102136.19;6039765;23;20078;-82
2021/06/06 05:09:26;;;;;;;2.20;1.00;;;;;;;8.27;84.46;102135.34;6015762;23;20049;-83
2021/06/06 05:11:51;;;;;;;1.50;1.10;;;;;;;8.22;84.58;102129.50;6018228;23;20014;-86
2021/06/06 05:14:17;;;;;;;3.33;1.10;;;;;;;8.37;84.18;102140.81;6016556;23;20007;-84
2021/06/06 05:16:43;;;;;;;3.85;1.10;;;;;;;8.50;83.58;102149.56;6017440;23;20444;-83
2021/06/06 05:19:08;;;;;;;2.33;1.25;;;;;;;8.57;83.96;102141.84;6017238;23;20014;-86
2021/06/06 05:21:34;;;;;;;2.60;1.00;;;;;;;8.68;83.73;102149.84;6016505;23;20014;-86
2021/06/06 05:23:59;;;;;;;1.60;0.90;;;;;;;8.69;83.40;102146.19;6015954;23;20006;-84
2021/06/06 05:26:25;;;;;;;2.33;0.93;;;;;;;8.70;83.52;102139.81;6040226;23;20014;-84
2021/06/06 05:28:50;;;;;;;3.80;1.38;;;;;;;8.70;83.45;102142.50;6014696;23;20011;-86
2021/06/06 05:31:17;;;;;;;2.05;1.13;;;;;;;8.86;84.01;102147.41;6039980;23;20093;-85
2021/06/06 05:33:43;;;;;;;2.22;1.35;;;;;;;8.91;83.98;102152.41;6016166;23;20468;-85
2021/06/06 05:36:08;;;;;;;3.67;1.38;;;;;;;8.96;83.85;102155.53;6016756;23;20090;-86
2021/06/06 05:38:35;;;;;;;4.70;1.30;;;;;;;8.84;83.64;102110.97;6015413;23;20388;-85
2021/06/06 05:41:01;;;;;;;3.03;1.42;;;;;;;8.98;84.18;102129.44;6016162;23;20034;-85
2021/06/06 05:43:27;;;;;;;3.17;1.40;;;;;;;9.13;84.17;102141.53;6016805;23;20015;-85
2021/06/06 05:45:54;;;;;;;4.15;1.45;;;;;;;9.25;83.75;102153.88;6014471;23;20102;-85
2021/06/06 05:48:20;;;;;;;4.40;1.42;;;;;;;9.29;83.96;102150.91;6015539;23;19999;-86
2021/06/06 05:50:48;;;;;;;3.33;1.33;;;;;;;9.33;84.56;102150.53;6016849;23;20010;-84
2021/06/06 05:53:14;;;;;;;8.80;1.85;;;;;;;9.41;84.04;102152.53;6015413;23;20003;-86
2021/06/06 05:55:40;;;;;;;4.10;1.45;;;;;;;9.56;83.83;102145.00;6039590;23;20030;-85
2021/06/06 05:58:06;;;;;;;3.13;1.52;;;;;;;9.70;83.31;102144.59;6014542;23;20038;-85
2021/06/06 06:00:35;;;;;;;6.28;1.58;;;;;;;9.65;83.52;102131.59;6015234;23;20033;-85
2021/06/06 06:03:01;;;;;;;4.53;2.08;;;;;;;9.78;84.02;102146.63;6014842;23;20034;-85
2021/06/06 06:05:26;;;;;;;3.20;1.50;;;;;;;9.86;84.03;102146.78;6016377;23;20337;-84
2021/06/06 06:07:52;;;;;;;8.00;1.58;;;;;;;9.94;83.88;102127.28;6014598;23;20054;-85
2021/06/06 06:10:24;;;;;;;8.38;1.67;;;;;;;10.16;83.77;102151.25;6039623;23;20006;-84
2021/06/06 06:12:50;;;;;;;5.43;1.63;;;;;;;10.28;83.29;102143.94;6016244;23;20007;-85
2021/06/06 06:15:16;;;;;;;4.28;1.55;;;;;;;10.42;82.54;102153.41;6016022;23;20062;-85
2021/06/06 06:17:42;;;;;;;5.88;1.73;;;;;;;10.51;82.15;102153.44;6014325;23;20010;-83
2021/06/06 06:20:09;;;;;;;7.18;1.63;;;;;;;10.63;81.01;102153.28;6016504;23;20011;-83
2021/06/06 06:22:35;;;;;;;5.47;1.60;;;;;;;10.76;80.55;102156.53;6040507;23;20010;-84
2021/06/06 06:25:01;;;;;;;7.40;1.60;;;;;;;10.73;80.23;102141.53;6016820;23;20425;-84
2021/06/06 06:27:27;;;;;;;5.18;1.70;;;;;;;10.84;79.39;102148.59;6042341;23;20006;-84
2021/06/06 06:29:52;;;;;;;7.82;2.08;;;;;;;11.00;79.23;102170.38;6015506;23;20563;-83
2021/06/06 06:32:18;;;;;;;6.78;1.80;;;;;;;11.06;78.79;102170.78;6015806;23;20010;-84
2021/06/06 06:34:43;;;;;;;4.32;1.63;;;;;;;11.05;78.90;102155.66;6039830;23;20013;-84
2021/06/06 06:37:09;;;;;;;7.38;1.63;;;;;;;11.19;78.49;102161.44;6040745;23;20054;-83
2021/06/06 06:39:34;;;;;;;9.23;1.55;;;;;;;11.30;78.80;102165.78;6017780;23;20021;-84
2021/06/06 06:42:00;;;;;;;4.32;1.90;;;;;;;11.11;78.24;102123.59;6040180;23;20003;-83
2021/06/06 06:44:25;;;;;;;5.30;1.58;;;;;;;11.26;78.08;102159.00;6039905;23;20007;-83
2021/06/06 06:46:50;;;;;;;10.02;2.08;;;;;;;11.18;77.84;102140.03;6019286;23;20046;-84
2021/06/06 06:49:16;;;;;;;5.65;2.05;;;;;;;11.36;77.65;102151.72;6017756;23;20392;-84
2021/06/06 06:51:41;;;;;;;5.20;1.35;;;;;;;11.40;77.60;102152.28;6015986;23;20018;-83
2021/06/06 06:54:07;;;;;;;6.78;1.83;;;;;;;11.51;77.41;102157.50;6016605;23;20007;-84
2021/06/06 06:56:32;;;;;;;5.90;1.60;;;;;;;11.65;76.65;102142.69;6018338;23;20014;-84
2021/06/06 06:58:58;;;;;;;4.50;1.55;;;;;;;11.87;76.04;102157.63;6039773;23;20027;-85
2021/06/06 07:01:24;;;;;;;6.00;1.70;;;;;;;12.00;74.43;102162.69;6017226;23;20009;-84
2021/06/06 07:03:50;;;;;;;7.85;1.83;;;;;;;11.99;74.61;102156.44;6017602;23;20014;-84
2021/06/06 07:06:15;;;;;;;4.70;1.63;;;;;;;12.03;74.05;102160.53;6039568;23;20007;-84
2021/06/06 07:08:43;;;;;;;6.18;1.60;;;;;;;12.16;73.26;102160.16;6040833;23;20412;-83
2021/06/06 07:11:12;;;;;;;5.93;1.70;;;;;;;12.20;72.64;102150.78;6016326;23;20009;-83
2021/06/06 07:13:38;;;;;;;8.77;1.92;;;;;;;12.34;72.25;102152.09;6015725;23;20117;-85
2021/06/06 07:16:05;;;;;;;6.07;2.20;;;;;;;12.40;71.40;102146.06;6015740;23;20045;-83
2021/06/06 07:18:31;;;;;;;6.90;2.17;;;;;;;12.54;71.17;102158.16;6015156;23;20007;-84
2021/06/06 07:21:01;;;;;;;7.20;1.63;;;;;;;12.66;71.23;102170.44;6015657;23;20038;-85
2021/06/06 07:23:27;;;;;;;7.93;1.77;;;;;;;12.66;71.57;102173.13;6015391;23;20003;-83
2021/06/06 07:25:55;;;;;;;4.90;1.58;;;;;;;12.69;70.80;102172.81;6038921;23;20015;-85
2021/06/06 07:28:23;;;;;;;9.48;1.60;;;;;;;12.70;69.97;102176.34;6039046;23;20496;-83
2021/06/06 07:30:56;;;;;;;9.27;1.60;;;;;;;12.56;69.88;102166.13;6039625;23;20082;-81
2021/06/06 07:33:25;;;;;;;7.43;1.83;;;;;;;12.65;69.78;102171.44;6016450;23;20073;-85
2021/06/06 07:35:52;;;;;;;5.93;1.73;;;;;;;12.69;69.73;102153.94;6015699;23;20234;-84
2021/06/06 07:38:19;;;;;;;7.38;2.15;;;;;;;12.84;69.33;102161.50;6014405;23;20010;-82
2021/06/06 07:40:45;;;;;;;8.25;2.47;;;;;;;13.02;68.85;102161.44;6017973;23;20011;-83
2021/06/06 07:43:11;;;;;;;5.45;1.50;;;;;;;13.15;68.48;102169.97;6016041;23;20007;-83
2021/06/06 07:45:38;;;;;;;7.93;2.08;;;;;;;13.08;68.54;102156.25;6015971;23;20831;-84
2021/06/06 07:48:04;;;;;;;6.88;1.73;;;;;;;13.15;67.58;102168.13;6015075;23;20361;-83
2021/06/06 07:50:32;;;;;;;5.95;1.92;;;;;;;13.20;67.39;102157.72;6015483;23;20532;-85
2021/06/06 07:52:58;;;;;;;4.57;1.42;;;;;;;13.40;66.59;102163.75;6039801;23;19999;-84
2021/06/06 07:55:24;;;;;;;6.43;1.65;;;;;;;13.68;65.03;102171.69;6041256;23;20002;-84
2021/06/06 07:57:50;;;;;;;5.88;1.48;;;;;;;13.87;64.44;102165.19;6015347;23;20007;-84
2021/06/06 08:00:24;;;;;;;7.05;1.73;;;;;;;14.08;63.80;102167.44;6017045;23;20021;-83
2021/06/06 08:02:49;;;;;;;4.95;1.50;;;;;;;14.15;63.88;102160.34;6040064;23;20006;-82
2021/06/06 08:05:16;;;;;;;4.60;1.40;;;;;;;14.16;64.20;102169.31;6019460;23;20029;-84
2021/06/06 08:07:41;;;;;;;12.55;1.80;;;;;;;14.10;63.72;102154.56;6014220;23;20026;-84
2021/06/06 08:10:10;;;;;;;9.20;1.40;;;;;;;14.04;64.22;102166.06;6017372;23;20641;-84
2021/06/06 08:12:35;;;;;;;6.93;1.80;;;;;;;13.82;64.73;102157.53;6014558;23;20003;-77
2021/06/06 08:15:02;;;;;;;4.65;1.63;;;;;;;14.01;64.60;102167.25;6011396;23;20033;-79
2021/06/06 08:17:28;;;;;;;8.52;1.40;;;;;;;14.27;64.67;102158.19;6061102;23;20030;-79
2021/06/06 08:19:53;;;;;;;6.63;2.58;;;;;;;14.53;62.46;102160.81;6035443;23;20068;-78
2021/06/06 08:22:19;;;;;;;5.80;1.48;;;;;;;14.90;61.20;102163.00;6035449;23;20463;-78
2021/06/06 08:24:45;;;;;;;4.72;1.80;;;;;;;15.13;60.21;102157.72;6039454;23;20027;-77
2021/06/06 08:27:10;;;;;;;4.00;1.30;;;;;;;15.01;58.75;102147.44;6064063;23;20029;-79
2021/06/06 08:29:36;;;;;;;4.80;1.70;;;;;;;14.87;58.73;102159.78;6036792;23;20046;-80
2021/06/06 08:32:02;;;;;;;7.28;1.58;;;;;;;14.90;58.18;102152.19;6061064;23;20090;-79
2021/06/06 08:34:28;;;;;;;5.55;1.60;;;;;;;14.65;59.42;102153.19;6036087;23;20054;-78
2021/06/06 08:36:57;;;;;;;8.75;1.60;;;;;;;14.41;59.78;102154.81;6060521;23;20021;-79
2021/06/06 08:39:26;;;;;;;6.40;1.70;;;;;;;14.15;60.46;102151.38;6012371;23;20062;-78
2021/06/06 08:41:51;;;;;;;7.80;1.85;;;;;;;13.92;60.63;102149.31;6036475;23;20089;-79
2021/06/06 08:44:19;;;;;;;6.85;1.40;;;;;;;13.72;61.41;102155.97;6061066;23;20038;-78
2021/06/06 08:47:06;;;;;;;6.13;1.90;;;;;;;13.54;61.67;102148.78;6038128;23;20027;-79
2021/06/06 08:49:52;;;;;;;3.53;1.20;;;;;;;13.84;61.60;102146.56;6063176;23;20875;-80
2021/06/06 08:52:36;;;;;;;6.32;1.65;;;;;;;14.39;60.86;102154.13;6036193;23;20007;-80
2021/06/06 08:55:06;;;;;;;5.90;1.90;;;;;;;14.80;59.73;102143.38;6037145;23;20010;-79
2021/06/06 08:57:35;;;;;;;3.85;1.10;;;;;;;15.16;56.77;102151.09;6063236;23;19999;-79
2021/06/06 09:00:25;;;;;;;6.45;1.88;;;;;;;15.46;53.95;102141.41;6063228;23;20003;-79
2021/06/06 09:02:55;;;;;;;4.10;1.15;;;;;;;15.74;52.85;102141.81;6060535;23;20049;-79
2021/06/06 09:05:42;;;;;;;6.00;1.40;;;;;;;16.11;49.93;102140.28;6037908;23;20077;-79
2021/06/06 09:08:27;;;;;;;4.65;1.25;;;;;;;16.32;48.13;102138.78;6036886;23;20340;-79
2021/06/06 09:10:56;;;;;;;5.35;1.30;;;;;;;16.38;48.16;102129.91;6037809;23;20128;-78
2021/06/06 09:13:24;;;;;;;4.32;1.50;;;;;;;16.47;48.59;102124.25;6038903;23;20359;-79
2021/06/06 09:15:50;;;;;;;5.30;1.70;;;;;;;16.54;48.52;102132.53;6063119;23;20003;-80
2021/06/06 09:18:26;;;;;;;3.20;1.60;;;;;;;16.67;48.09;102130.03;6038006;23;20011;-80
2021/06/06 09:20:53;;;;;;;2.85;1.40;;;;;;;16.87;48.24;102129.56;6038253;23;20459;-79
2021/06/06 09:23:28;;;;;;;4.63;1.70;;;;;;;17.09;47.90;102123.25;6037199;23;20010;-79
2021/06/06 09:26:16;;;;;;;3.70;1.77;;;;;;;17.22;47.93;102122.56;6062303;23;20011;-79
2021/06/06 09:28:45;;;;;;;4.32;1.80;;;;;;;17.32;47.48;102128.56;6018262;23;20453;-79
2021/06/06 09:31:16;;;;;;;4.85;2.58;;;;;;;17.55;47.43;102119.50;6036050;23;20007;-78
2021/06/06 09:33:45;;;;;;;3.80;1.40;;;;;;;17.94;47.12;102121.91;6036477;23;20051;-79
2021/06/06 09:36:30;;;;;;;4.47;1.20;;;;;;;18.22;47.04;102121.16;6037133;23;20009;-86
2021/06/06 09:39:09;;;;;;;5.53;1.40;;;;;;;18.33;46.80;102112.47;6012699;23;20011;-86
2021/06/06 09:41:45;;;;;;;5.03;1.23;;;;;;;18.35;46.10;102110.41;6037985;23;20082;-85
2021/06/06 09:44:14;;;;;;;4.35;1.20;;;;;;;18.36;46.65;102114.78;6038355;23;20007;-86
2021/06/06 09:46:47;;;;;;;2.40;1.13;;;;;;;18.48;47.43;102117.03;6037387;23;20002;-85
2021/06/06 09:49:15;;;;;;;3.65;1.77;;;;;;;18.65;45.41;102119.25;6060625;23;20003;-85
2021/06/06 09:51:40;;;;;;;6.30;1.33;;;;;;;18.59;45.98;102116.47;6062627;23;20038;-85
2021/06/06 09:54:07;;;;;;;3.45;1.50;;;;;;;18.67;45.44;102111.72;6015773;23;20007;-85
2021/06/06 09:56:34;;;;;;;3.97;1.45;;;;;;;18.63;45.64;102104.16;6040699;23;20041;-86
2021/06/06 09:59:18;;;;;;;2.65;1.40;;;;;;;18.87;45.17;102111.94;6015812;23;20074;-85
2021/06/06 10:02:01;;;;;;;3.55;1.20;;;;;;;18.81;43.79;102117.31;6039756;23;20054;-85
2021/06/06 10:04:29;;;;;;;3.15;1.20;;;;;;;18.69;43.33;102111.53;6039707;23;20010;-85
2021/06/06 10:07:15;;;;;;;5.32;1.50;;;;;;;18.75;42.87;102112.66;6040055;23;20014;-85
2021/06/06 10:09:49;;;;;;;4.95;1.42;;;;;;;18.84;44.03;102108.75;6015779;23;19999;-85
2021/06/06 10:12:39;;;;;;;5.15;1.48;;;;;;;19.06;43.41;102115.00;6040147;23;20006;-85
2021/06/06 10:15:18;;;;;;;5.63;1.38;;;;;;;19.00;43.72;102108.47;6040157;23;20006;-80
2021/06/06 10:17:50;;;;;;;3.72;1.33;;;;;;;19.12;43.62;102108.75;6015719;23;20006;-85
2021/06/06 10:20:26;;;;;;;7.25;2.47;;;;;;;18.90;42.99;102102.53;6040353;23;20010;-80
2021/06/06 10:23:04;;;;;;;6.25;1.50;;;;;;;18.98;43.25;102102.38;6040665;23;20481;-81
2021/06/06 10:25:44;;;;;;;3.85;1.33;;;;;;;19.30;44.08;102103.63;6039490;23;20500;-81
2021/06/06 10:28:11;;;;;;;3.58;1.88;;;;;;;19.29;44.40;102110.13;6038534;23;20007;-80
2021/06/06 10:30:41;;;;;;;4.65;1.30;;;;;;;19.03;45.08;102108.06;6039920;23;20010;-81
2021/06/06 10:33:15;;;;;;;5.70;1.48;;;;;;;18.62;45.53;102103.31;6040076;23;20433;-81
2021/06/06 10:35:41;;;;;;;3.63;1.75;;;;;;;18.22;46.00;102107.53;6015297;23;20003;-80
2021/06/06 10:38:06;;;;;;;5.45;1.80;;;;;;;17.82;46.71;102103.53;6015556;23;20011;-80
2021/06/06 10:40:45;;;;;;;6.97;1.38;;;;;;;17.54;47.04;102102.34;6039469;23;20013;-81
2021/06/06 10:43:30;;;;;;;6.38;1.30;;;;;;;18.00;47.65;102104.81;6042192;23;20007;-79
2021/06/06 10:46:08;;;;;;;6.45;1.50;;;;;;;18.48;46.26;102098.78;6020276;23;20065;-81
2021/06/06 10:48:42;;;;;;;5.63;1.40;;;;;;;18.83;45.65;102102.47;6065227;23;20006;-80
2021/06/06 10:51:12;;;;;;;2.80;1.42;;;;;;;19.01;44.65;102095.69;6022216;23;20778;-80
2021/06/06 10:53:38;;;;;;;7.13;1.48;;;;;;;19.22;44.34;102103.78;6045006;23;19999;-80
2021/06/06 10:56:07;;;;;;;3.58;1.20;;;;;;;19.35;43.70;102094.84;6042499;23;20649;-79
2021/06/06 10:58:38;;;;;;;6.32;1.50;;;;;;;19.45;43.32;102087.13;6067350;23;20030;-81
2021/06/06 11:01:19;;;;;;;3.22;1.38;;;;;;;19.55;41.84;102087.59;6064639;23;20006;-79
2021/06/06 11:04:05;;;;;;;3.88;1.50;;;;;;;19.32;41.76;102085.19;6039289;23;20013;-81
2021/06/06 11:06:33;;;;;;;4.65;1.10;;;;;;;19.38;41.23;102091.72;6038510;23;20010;-81
2021/06/06 11:08:59;;;;;;;3.40;1.20;;;;;;;19.26;40.88;102090.59;6037434;23;20500;-81
2021/06/06 11:11:37;;;;;;;5.53;1.40;;;;;;;18.81;41.47;102088.19;6039733;23;20003;-81
2021/06/06 11:14:08;;;;;;;4.82;1.50;;;;;;;19.06;42.86;102093.19;6015650;23;20379;-80
2021/06/06 11:16:37;;;;;;;3.67;1.23;;;;;;;19.23;42.99;102094.56;6064548;23;20018;-81
2021/06/06 11:19:08;;;;;;;5.38;1.55;;;;;;;19.46;42.66;102085.25;6064922;23;20007;-81
2021/06/06 11:21:39;;;;;;;3.58;1.75;;;;;;;19.40;41.22;102097.81;6039874;23;20030;-81
2021/06/06 11:24:29;;;;;;;3.58;1.63;;;;;;;19.51;42.28;102091.78;6039413;23;20011;-82
2021/06/06 11:27:00;;;;;;;5.95;1.40;;;;;;;19.73;41.14;102081.59;6016388;23;20011;-80
2021/06/06 11:29:27;;;;;;;4.28;1.20;;;;;;;19.62;41.87;102087.63;6037409;23;20066;-81
2021/06/06 11:32:21;;;;;;;5.90;1.67;;;;;;;19.08;42.16;102081.06;6064401;23;20054;-80
2021/06/06 11:34:51;;;;;;;3.00;1.05;;;;;;;18.67;42.04;102079.03;6064647;23;20459;-80
2021/06/06 11:37:29;;;;;;;5.05;1.50;;;;;;;18.20;43.51;102082.38;6040211;23;20006;-81